
Distance (Route):
Temperature : -49.9°C
Humidity : 0.5%
Pressure : 0hPa| Receiver | Frames | First received | Last received |
|---|---|---|---|
| RDZBGO | 57 | 2026-09-02 00:05:15 | 2026-09-02 00:25:34 |
| Receiver | Date | Latitude | Longitude | Direction | Speed | Altitude | Climb | Temperature | Humidity | Pressure | Voltage | Killtimer | Uptime | BKT | XDATA |
|---|---|---|---|---|---|---|---|---|---|---|---|---|---|---|---|
| RDZBGO | 2026-09-02 00:25:34 | 39.34600 | 9.28979 | 289° | 16km/h | 25212m | -47.3m/s | -49.9°C | 0.5% | 0hPa | 0V | 00:00:00 | 00:00:00 | 00:00:00 | |
| RDZBGO | 2026-09-02 00:25:13 | 39.34612 | 9.29116 | 255° | 27km/h | 26252m | -51.9m/s | -48.0°C | 0.4% | 0hPa | 0V | 08:29:00 | 00:00:00 | 00:00:00 | |
| RDZBGO | 2026-09-02 00:24:52 | 39.34583 | 9.29295 | 301° | 29km/h | 27373m | -56.0m/s | -48.3°C | 0.4% | 0hPa | 0V | 08:29:00 | 00:00:00 | 00:00:00 | |
| RDZBGO | 2026-09-02 00:24:31 | 39.34508 | 9.29474 | 301° | 35km/h | 28601m | -62.0m/s | -46.8°C | 0.4% | 0hPa | 0V | 00:00:00 | 00:00:00 | 00:00:00 | |
| RDZBGO | 2026-09-02 00:24:12 | 39.34480 | 9.29644 | 264° | 33km/h | 29879m | -66.9m/s | -42.6°C | 0.2% | 0hPa | 0V | 00:00:00 | 00:00:00 | 00:00:00 | |
| RDZBGO | 2026-09-02 00:23:51 | 39.34484 | 9.29875 | 274° | 38km/h | 31351m | -78.1m/s | -38.2°C | 0.1% | 0hPa | 0V | 00:00:00 | 00:00:00 | 00:00:00 | |
| RDZBGO | 2026-09-02 00:23:29 | 39.34473 | 9.30107 | 270° | 27km/h | 32882m | -39.8m/s | -38.5°C | 0.2% | 0hPa | 0V | 00:00:00 | 00:00:00 | 00:00:00 | |
| RDZBGO | 2026-09-02 00:23:09 | 39.34486 | 9.30347 | 268° | 35km/h | 32876m | 7.2m/s | -38.9°C | 0.1% | 0hPa | 0V | 00:00:00 | 00:00:00 | 00:00:00 | |
| RDZBGO | 2026-09-02 00:22:48 | 39.34465 | 9.30624 | 273° | 42km/h | 32754m | 6.6m/s | -39.2°C | 0.2% | 0hPa | 0V | 00:00:00 | 00:00:00 | 00:00:00 | |
| RDZBGO | 2026-09-02 00:22:27 | 39.34466 | 9.30933 | 277° | 26km/h | 32631m | 7.5m/s | -39.0°C | 0.2% | 0hPa | 0V | 00:00:00 | 00:00:00 | 00:00:00 | |
| RDZBGO | 2026-09-02 00:22:07 | 39.34409 | 9.31137 | 253° | 29km/h | 32507m | 5.4m/s | -39.4°C | 0.2% | 0hPa | 0V | 00:00:00 | 00:00:00 | 00:00:00 | |
| RDZBGO | 2026-09-02 00:21:46 | 39.34356 | 9.31351 | 290° | 37km/h | 32387m | 5.2m/s | -39.8°C | 0.2% | 0hPa | 0V | 00:00:00 | 00:00:00 | 00:00:00 | |
| RDZBGO | 2026-09-02 00:21:06 | 39.34279 | 9.31845 | 282° | 44km/h | 32145m | 5.1m/s | -40.4°C | 0.2% | 0hPa | 0V | 00:00:00 | 00:00:00 | 00:00:00 | |
| RDZBGO | 2026-09-02 00:20:45 | 39.34292 | 9.32167 | 259° | 51km/h | 32016m | 4.8m/s | -39.8°C | 0.2% | 0hPa | 0V | 00:00:00 | 00:00:00 | 00:00:00 | |
| RDZBGO | 2026-09-02 00:20:25 | 39.34327 | 9.32468 | 262° | 31km/h | 31887m | 6.4m/s | -39.6°C | 0.2% | 0hPa | 0V | 00:00:00 | 00:00:00 | 00:00:00 | |
| RDZBGO | 2026-09-02 00:20:05 | 39.34384 | 9.32725 | 257° | 49km/h | 31763m | 7.7m/s | -40.2°C | 0.2% | 0hPa | 0V | 00:00:00 | 00:00:00 | 00:00:00 | |
| RDZBGO | 2026-09-02 00:19:44 | 39.34420 | 9.32987 | 258° | 44km/h | 31639m | 6.0m/s | -40.4°C | 0.2% | 0hPa | 0V | 00:00:00 | 00:00:00 | 00:00:00 | |
| RDZBGO | 2026-09-02 00:19:23 | 39.34401 | 9.33245 | 302° | 29km/h | 31512m | 6.9m/s | -40.6°C | 0.2% | 0hPa | 0V | 00:00:00 | 00:00:00 | 00:00:00 | |
| RDZBGO | 2026-09-02 00:19:02 | 39.34344 | 9.33557 | 270° | 44km/h | 31388m | 5.6m/s | -40.2°C | 0.2% | 0hPa | 0V | 00:00:00 | 00:00:00 | 00:00:00 | |
| RDZBGO | 2026-09-02 00:18:42 | 39.34353 | 9.33862 | 262° | 38km/h | 31272m | 7.1m/s | -41.0°C | 0.2% | 0hPa | 0V | 00:00:00 | 00:00:00 | 00:00:00 | |
| RDZBGO | 2026-09-02 00:18:21 | 39.34394 | 9.34090 | 206° | 18km/h | 31139m | 6.6m/s | -41.3°C | 0.2% | 0hPa | 0V | 00:00:00 | 00:00:00 | 00:00:00 | |
| RDZBGO | 2026-09-02 00:18:01 | 39.34459 | 9.34289 | 270° | 31km/h | 31012m | 5.8m/s | -41.6°C | 0.2% | 0hPa | 0V | 00:00:00 | 00:00:00 | 00:00:00 | |
| RDZBGO | 2026-09-02 00:17:39 | 39.34464 | 9.34493 | 274° | 31km/h | 30887m | 5.6m/s | -41.8°C | 0.2% | 0hPa | 0V | 00:00:00 | 00:00:00 | 00:00:00 | |
| RDZBGO | 2026-09-02 00:17:18 | 39.34417 | 9.34712 | 294° | 26km/h | 30756m | 5.7m/s | -42.5°C | 0.3% | 0hPa | 0V | 00:00:00 | 00:00:00 | 00:00:00 | |
| RDZBGO | 2026-09-02 00:16:37 | 39.34481 | 9.35123 | 242° | 35km/h | 30500m | 6.4m/s | -42.8°C | 0.3% | 0hPa | 0V | 00:00:00 | 00:00:00 | 00:00:00 | |
| RDZBGO | 2026-09-02 00:16:17 | 39.34527 | 9.35301 | 243° | 33km/h | 30377m | 7.3m/s | -43.3°C | 0.3% | 0hPa | 0V | 00:00:00 | 00:00:00 | 00:00:00 | |
| RDZBGO | 2026-09-02 00:15:56 | 39.34562 | 9.35521 | 273° | 35km/h | 30241m | 6.5m/s | -43.7°C | 0.3% | 0hPa | 0V | 00:00:00 | 00:00:00 | 00:00:00 | |
| RDZBGO | 2026-09-02 00:15:36 | 39.34613 | 9.35717 | 220° | 33km/h | 30107m | 5.4m/s | -44.0°C | 0.3% | 0hPa | 0V | 00:00:00 | 00:00:00 | 00:00:00 | |
| RDZBGO | 2026-09-02 00:15:15 | 39.34657 | 9.35854 | 277° | 27km/h | 29980m | 6.5m/s | -44.6°C | 0.3% | 0hPa | 0V | 00:00:00 | 00:00:00 | 00:00:00 | |
| RDZBGO | 2026-09-02 00:14:54 | 39.34637 | 9.36017 | 276° | 31km/h | 29848m | 6.3m/s | -44.7°C | 0.3% | 0hPa | 0V | 00:00:00 | 00:00:00 | 00:00:00 | |
| RDZBGO | 2026-09-02 00:14:34 | 39.34642 | 9.36168 | 264° | 27km/h | 29722m | 5.4m/s | -44.8°C | 0.3% | 0hPa | 0V | 00:00:00 | 00:00:00 | 00:00:00 | |
| RDZBGO | 2026-09-02 00:14:14 | 39.34677 | 9.36251 | 175° | 11km/h | 29592m | 5.7m/s | -45.2°C | 0.3% | 0hPa | 0V | 00:00:00 | 00:00:00 | 00:00:00 | |
| RDZBGO | 2026-09-02 00:13:52 | 39.34651 | 9.36383 | 283° | 31km/h | 29466m | 7.3m/s | -45.7°C | 0.4% | 0hPa | 0V | 00:00:00 | 00:00:00 | 00:00:00 | |
| RDZBGO | 2026-09-02 00:13:33 | 39.34627 | 9.36545 | 266° | 18km/h | 29348m | 7.3m/s | -45.9°C | 0.4% | 0hPa | 0V | 00:00:00 | 00:00:00 | 00:00:00 | |
| RDZBGO | 2026-09-02 00:13:11 | 39.34605 | 9.36697 | 268° | 13km/h | 29226m | 6.4m/s | -46.7°C | 0.4% | 0hPa | 0V | 00:00:00 | 00:00:00 | 00:00:00 | |
| RDZBGO | 2026-09-02 00:12:51 | 39.34565 | 9.36855 | 301° | 40km/h | 29109m | 6.8m/s | -47.3°C | 0.4% | 0hPa | 0V | 00:00:00 | 00:00:00 | 00:00:00 | |
| RDZBGO | 2026-09-02 00:12:31 | 39.34460 | 9.37060 | 306° | 33km/h | 28997m | 6.2m/s | -47.6°C | 0.4% | 0hPa | 0V | 00:00:00 | 00:00:00 | 00:00:00 | |
| RDZBGO | 2026-09-02 00:12:10 | 39.34341 | 9.37319 | 306° | 51km/h | 28876m | 5.3m/s | -47.9°C | 0.4% | 0hPa | 0V | 00:00:00 | 00:00:00 | 00:00:00 | |
| RDZBGO | 2026-09-02 00:11:49 | 39.34254 | 9.37547 | 295° | 33km/h | 28752m | 5.8m/s | -48.5°C | 0.5% | 0hPa | 0V | 00:00:00 | 00:00:00 | 00:00:00 | |
| RDZBGO | 2026-09-02 00:11:29 | 39.34171 | 9.37720 | 297° | 33km/h | 28629m | 7.0m/s | -48.4°C | 0.5% | 0hPa | 0V | 00:00:00 | 00:00:00 | 00:00:00 | |
| RDZBGO | 2026-09-02 00:11:08 | 39.34060 | 9.37919 | 314° | 37km/h | 28497m | 7.0m/s | -48.4°C | 0.5% | 0hPa | 0V | 00:00:00 | 00:00:00 | 00:00:00 | |
| RDZBGO | 2026-09-02 00:10:47 | 39.33949 | 9.38119 | 298° | 33km/h | 28362m | 6.7m/s | -47.9°C | 0.4% | 0hPa | 0V | 00:00:00 | 00:00:00 | 00:00:00 | |
| RDZBGO | 2026-09-02 00:10:27 | 39.33891 | 9.38333 | 286° | 40km/h | 28235m | 6.8m/s | -48.5°C | 0.4% | 0hPa | 0V | 00:00:00 | 00:00:00 | 00:00:00 | |
| RDZBGO | 2026-09-02 00:10:06 | 39.33837 | 9.38553 | 302° | 29km/h | 28099m | 5.9m/s | -48.6°C | 0.5% | 0hPa | 0V | 00:00:00 | 00:00:00 | 00:00:00 | |
| RDZBGO | 2026-09-02 00:09:45 | 39.33762 | 9.38697 | 317° | 16km/h | 27958m | 5.3m/s | -48.5°C | 0.5% | 0hPa | 0V | 00:00:00 | 00:00:00 | 00:00:00 | |
| RDZBGO | 2026-09-02 00:09:29 | 39.33725 | 9.38844 | 280° | 29km/h | 27829m | 7.5m/s | -48.0°C | 0.5% | 0hPa | 0V | 00:00:00 | 00:00:00 | 00:00:00 | |
| RDZBGO | 2026-09-02 00:09:05 | 39.33706 | 9.39061 | 284° | 38km/h | 27703m | 5.0m/s | -48.7°C | 0.5% | 0hPa | 0V | 00:00:00 | 00:00:00 | 00:00:00 | |
| RDZBGO | 2026-09-02 00:08:45 | 39.33659 | 9.39256 | 307° | 31km/h | 27577m | 7.3m/s | -49.4°C | 0.5% | 0hPa | 0V | 00:00:00 | 00:00:00 | 00:00:00 | |
| RDZBGO | 2026-09-02 00:08:24 | 39.33573 | 9.39343 | 342° | 26km/h | 27461m | 6.8m/s | -49.1°C | 0.5% | 0hPa | 0V | 00:00:00 | 00:00:00 | 00:00:00 | |
| RDZBGO | 2026-09-02 00:08:04 | 39.33473 | 9.39495 | 299° | 35km/h | 27338m | 5.5m/s | -49.2°C | 0.5% | 0hPa | 0V | 00:00:00 | 00:00:00 | 00:00:00 | |
| RDZBGO | 2026-09-02 00:07:42 | 39.33385 | 9.39695 | 307° | 29km/h | 27220m | 5.3m/s | -49.7°C | 0% | 0hPa | 0V | 00:00:00 | 00:00:00 | 00:00:00 | |
| RDZBGO | 2026-09-02 00:07:22 | 39.33309 | 9.39805 | 311° | 20km/h | 27107m | 6.7m/s | -50.3°C | 0% | 0hPa | 0V | 00:00:00 | 00:00:00 | 00:00:00 | |
| RDZBGO | 2026-09-02 00:07:01 | 39.33284 | 9.39919 | 260° | 18km/h | 26988m | 4.4m/s | -50.5°C | 0% | 0hPa | 0V | 00:00:00 | 00:00:00 | 00:00:00 | |
| RDZBGO | 2026-09-02 00:06:38 | 39.33249 | 9.40127 | 280° | 27km/h | 26859m | 4.8m/s | -49.9°C | 0% | 0hPa | 0V | 00:00:00 | 00:00:00 | 00:00:00 | |
| RDZBGO | 2026-09-02 00:06:17 | 39.33251 | 9.40385 | 253° | 40km/h | 26731m | 5.5m/s | -49.7°C | 0% | 0hPa | 0V | 00:00:00 | 00:00:00 | 00:00:00 | |
| RDZBGO | 2026-09-02 00:05:55 | 39.33328 | 9.40638 | 241° | 40km/h | 26615m | 5.6m/s | 0°C | 0% | 0hPa | 0V | 00:00:00 | 00:00:00 | 00:00:00 | |
| RDZBGO | 2026-09-02 00:05:15 | 39.33452 | 9.41003 | 276° | 33km/h | 26373m | 5.3m/s | 0°C | 0% | 0hPa | 0V | 00:00:00 | 00:00:00 | 00:00:00 |